Time;durP1;ratioP1;P1;durP2;ratioP2;P2;SDS_P1;SDS_P2;PMS_P1;PMS_P2;Temp;Humidity;BMP_temperature;BMP_pressure;BME280_temperature;BME280_humidity;BME280_pressure;Samples;Min_cycle;Max_cycle;Signal;HPM_P1;HPM_P2
2020/12/26 00:03:11;;;;;;;9.07;4.10;;;;;;;-0.10;79.75;102082.56;10132972;28;20046;-66
2020/12/26 00:08:07;;;;;;;8.27;4.07;;;;;;;-0.21;79.94;102097.50;10132324;28;20142;-66
2020/12/26 00:13:03;;;;;;;9.30;3.83;;;;;;;-0.27;80.03;102104.56;10115599;28;20054;-65
2020/12/26 00:17:59;;;;;;;10.90;4.38;;;;;;;-0.23;80.33;102092.34;10122289;28;20050;-65
2020/12/26 00:22:55;;;;;;;7.88;4.00;;;;;;;-0.27;80.19;102084.91;10131918;28;20057;-65
2020/12/26 00:27:51;;;;;;;15.38;4.78;;;;;;;-0.30;80.58;102083.47;10141396;28;20105;-65
2020/12/26 00:32:47;;;;;;;15.13;6.45;;;;;;;-0.18;81.96;102074.75;10141134;28;21707;-65
2020/12/26 00:37:42;;;;;;;13.07;5.07;;;;;;;-0.20;81.23;102068.78;10133282;28;20065;-65
2020/12/26 00:42:38;;;;;;;15.60;5.97;;;;;;;-0.20;80.87;102082.22;10125904;28;20058;-65
2020/12/26 00:47:34;;;;;;;13.55;6.75;;;;;;;-0.20;81.50;102072.28;10122184;28;20573;-65
2020/12/26 00:52:31;;;;;;;18.17;10.48;;;;;;;-0.10;85.05;102078.03;10137866;28;20082;-65
2020/12/26 00:57:27;;;;;;;15.57;10.32;;;;;;;0.04;85.58;102068.03;10132697;28;20062;-66
2020/12/26 01:02:23;;;;;;;17.55;11.38;;;;;;;0.11;85.68;102068.00;10126165;28;20058;-66
2020/12/26 01:07:18;;;;;;;17.15;11.65;;;;;;;0.09;86.16;102060.13;10129436;28;20059;-66
2020/12/26 01:12:15;;;;;;;19.30;11.57;;;;;;;0.10;85.91;102067.19;10126572;28;20054;-66
2020/12/26 01:17:11;;;;;;;19.15;11.15;;;;;;;0.09;86.17;102065.50;10137706;28;20426;-65
2020/12/26 01:22:25;;;;;;;17.58;10.57;;;;;;;0.19;85.38;102067.75;10131298;28;20055;-65
2020/12/26 01:27:21;;;;;;;23.95;12.57;;;;;;;0.14;85.62;102060.34;10128603;28;20123;-66
2020/12/26 01:32:17;;;;;;;24.23;13.05;;;;;;;0.17;85.35;102067.97;10117319;28;20063;-65
2020/12/26 01:37:13;;;;;;;24.08;11.85;;;;;;;0.18;85.25;102058.84;10103108;28;20051;-65
2020/12/26 01:42:09;;;;;;;23.45;12.00;;;;;;;0.24;85.10;102067.13;10123278;28;20148;-65
2020/12/26 01:47:06;;;;;;;23.10;12.55;;;;;;;0.23;84.25;102062.75;10134599;28;20066;-66
2020/12/26 01:52:03;;;;;;;24.88;12.63;;;;;;;0.25;84.25;102052.63;10129095;28;20054;-66
2020/12/26 01:56:59;;;;;;;18.92;10.25;;;;;;;0.26;84.00;102054.28;10140254;28;20081;-66
2020/12/26 02:01:57;;;;;;;15.52;10.40;;;;;;;0.29;83.63;102053.84;10138428;28;20054;-65
2020/12/26 02:06:58;;;;;;;25.33;12.35;;;;;;;0.29;83.84;102048.47;10124955;28;20510;-66
2020/12/26 02:11:54;;;;;;;34.80;16.40;;;;;;;0.12;84.88;102032.84;10126425;28;20102;-65
2020/12/26 02:16:52;;;;;;;41.40;18.92;;;;;;;0.12;84.79;102038.22;10135827;28;20062;-66
2020/12/26 02:21:48;;;;;;;38.83;19.65;;;;;;;0.07;84.94;102034.50;10136183;28;20073;-66
2020/12/26 02:26:44;;;;;;;45.83;20.92;;;;;;;-0.26;85.09;102033.63;10133955;28;20043;-66
2020/12/26 02:31:40;;;;;;;37.63;19.95;;;;;;;-0.24;84.76;102047.66;10135361;28;20054;-67
2020/12/26 02:36:38;;;;;;;43.85;21.50;;;;;;;-0.36;84.94;102049.38;10135263;28;20046;-66
2020/12/26 02:41:34;;;;;;;49.17;24.85;;;;;;;-0.53;86.16;102034.78;10129897;28;20050;-66
2020/12/26 02:46:30;;;;;;;46.13;23.17;;;;;;;-0.58;85.87;102015.75;10142167;28;20510;-65
2020/12/26 02:51:26;;;;;;;61.78;29.35;;;;;;;-0.78;86.90;102024.72;10128715;28;20510;-66
2020/12/26 02:56:22;;;;;;;47.10;23.85;;;;;;;-0.53;86.14;102024.84;10140937;28;20050;-65
2020/12/26 03:01:18;;;;;;;40.38;22.58;;;;;;;-0.54;85.50;102025.06;10131835;28;20054;-66
2020/12/26 03:06:14;;;;;;;36.08;19.38;;;;;;;-0.47;84.75;102023.97;10136045;28;20054;-66
2020/12/26 03:11:10;;;;;;;41.63;21.63;;;;;;;-0.82;85.35;102023.47;10141394;28;20054;-65
2020/12/26 03:16:06;;;;;;;38.10;19.10;;;;;;;-0.57;84.77;102017.44;10133008;28;20054;-65
2020/12/26 03:21:03;;;;;;;36.35;19.73;;;;;;;-0.46;84.57;101998.78;10136540;28;20073;-65
2020/12/26 03:25:59;;;;;;;37.25;20.13;;;;;;;-0.35;84.43;101983.84;10137527;28;20054;-65
2020/12/26 03:30:55;;;;;;;33.60;19.10;;;;;;;-0.33;84.20;101972.88;10136524;28;20474;-66
2020/12/26 03:35:51;;;;;;;36.97;20.88;;;;;;;-0.19;83.88;101981.69;10134150;28;20054;-67
2020/12/26 03:40:47;;;;;;;33.97;19.30;;;;;;;-0.24;83.86;101975.09;10129507;28;20050;-65
2020/12/26 03:45:43;;;;;;;28.38;17.50;;;;;;;-0.07;84.02;101985.34;10112337;28;20047;-66
2020/12/26 03:50:39;;;;;;;25.23;14.07;;;;;;;-0.19;84.74;101971.75;10139496;28;20133;-66
2020/12/26 03:55:35;;;;;;;24.60;13.98;;;;;;;-0.04;84.15;101964.25;10132533;28;20046;-65
2020/12/26 04:00:31;;;;;;;25.70;14.27;;;;;;;-0.08;84.36;101962.19;10138349;28;20046;-65
2020/12/26 04:05:27;;;;;;;24.50;14.40;;;;;;;-0.01;84.41;101954.91;10134560;28;20065;-66
2020/12/26 04:10:23;;;;;;;21.33;13.15;;;;;;;0.12;84.29;101952.16;10134275;28;20054;-65
2020/12/26 04:15:19;;;;;;;23.92;14.45;;;;;;;0.15;84.46;101935.56;10143963;28;20169;-65
2020/12/26 04:20:15;;;;;;;22.92;12.40;;;;;;;0.24;83.62;101932.63;10132029;28;20170;-65
2020/12/26 04:25:11;;;;;;;17.15;11.05;;;;;;;0.26;83.32;101938.59;10138558;28;20062;-65
2020/12/26 04:30:07;;;;;;;23.40;11.73;;;;;;;0.30;83.43;101926.34;10137808;28;20046;-65
2020/12/26 04:35:03;;;;;;;21.67;11.85;;;;;;;0.45;82.88;101937.59;10124331;28;20050;-65
2020/12/26 04:40:00;;;;;;;27.52;11.73;;;;;;;0.40;82.92;101926.69;10124377;28;20438;-66
2020/12/26 04:44:57;;;;;;;28.67;13.25;;;;;;;0.47;83.00;101915.88;10137876;28;20048;-66
2020/12/26 04:49:59;;;;;;;20.77;11.55;;;;;;;0.46;83.06;101903.44;10111763;28;20047;-66
2020/12/26 04:54:55;;;;;;;23.70;12.60;;;;;;;0.34;83.49;101901.47;10126567;28;20050;-66
2020/12/26 04:59:52;;;;;;;19.98;12.27;;;;;;;0.37;83.67;101909.13;10141044;28;20109;-66
2020/12/26 05:04:48;;;;;;;19.80;12.93;;;;;;;0.39;83.58;101908.88;10128064;28;20900;-65
2020/12/26 05:09:44;;;;;;;23.05;13.60;;;;;;;0.38;83.31;101918.00;10126565;28;20418;-65
2020/12/26 05:14:40;;;;;;;22.17;12.43;;;;;;;0.38;83.25;101918.81;10131283;28;20054;-65
2020/12/26 05:19:35;;;;;;;23.88;12.25;;;;;;;0.48;83.01;101912.94;10139975;28;20050;-66
2020/12/26 05:24:32;;;;;;;21.52;13.23;;;;;;;0.53;83.04;101907.72;10126135;28;20055;-66
2020/12/26 05:29:29;;;;;;;26.95;12.43;;;;;;;0.58;83.09;101905.19;10135355;28;20054;-65
2020/12/26 05:34:35;;;;;;;22.10;12.50;;;;;;;0.59;83.00;101909.53;10133572;28;20120;-65
2020/12/26 05:39:38;;;;;;;22.85;14.23;;;;;;;0.67;82.91;101908.41;10138148;28;20109;-66
2020/12/26 05:44:37;;;;;;;24.35;9.80;;;;;;;0.62;82.77;101908.25;10143324;28;20102;-66
2020/12/26 05:49:38;;;;;;;21.92;12.65;;;;;;;0.65;82.17;101904.28;10136236;28;20050;-66
2020/12/26 05:54:35;;;;;;;24.02;13.15;;;;;;;0.65;82.37;101907.84;10137825;28;20089;-66
2020/12/26 05:59:31;;;;;;;19.42;12.82;;;;;;;0.60;82.64;101900.41;10139397;28;20101;-66
2020/12/26 06:04:29;;;;;;;24.83;13.00;;;;;;;0.70;82.66;101889.13;10136683;28;20050;-66
2020/12/26 06:09:25;;;;;;;24.70;13.75;;;;;;;0.75;83.02;101880.38;10136727;28;20055;-65
2020/12/26 06:14:21;;;;;;;25.15;12.35;;;;;;;0.73;83.74;101882.47;10133106;28;20093;-66
2020/12/26 06:19:18;;;;;;;21.75;13.25;;;;;;;0.75;83.54;101885.78;10139785;28;20052;-66
2020/12/26 06:24:14;;;;;;;22.70;13.23;;;;;;;0.81;83.55;101890.25;10134191;28;20097;-66
2020/12/26 06:29:15;;;;;;;20.10;12.77;;;;;;;0.93;83.70;101893.84;10132580;28;20043;-65
2020/12/26 06:34:13;;;;;;;21.08;13.15;;;;;;;0.97;83.90;101878.88;10132606;28;20149;-65
2020/12/26 06:39:32;;;;;;;20.95;11.77;;;;;;;1.00;83.67;101883.84;10134129;28;20054;-65
2020/12/26 06:44:35;;;;;;;22.15;12.95;;;;;;;1.02;83.63;101884.44;10122734;28;20059;-66
2020/12/26 06:49:32;;;;;;;21.10;13.17;;;;;;;0.98;83.99;101885.94;10127668;28;20051;-65
2020/12/26 06:54:56;;;;;;;26.17;9.63;;;;;;;1.02;84.45;101881.75;10127601;28;20105;-66
2020/12/26 06:59:52;;;;;;;17.08;8.98;;;;;;;1.07;85.08;101894.53;10114995;28;20050;-66
2020/12/26 07:04:48;;;;;;;17.75;8.68;;;;;;;1.14;85.02;101886.34;10140754;28;20057;-66
2020/12/26 07:09:46;;;;;;;15.23;7.95;;;;;;;1.15;85.12;101885.31;10135225;28;20046;-66
2020/12/26 07:14:44;;;;;;;10.90;6.68;;;;;;;1.26;84.43;101888.06;10127448;28;20082;-66
2020/12/26 07:19:42;;;;;;;12.73;6.82;;;;;;;1.23;85.08;101871.50;10126816;28;20124;-66
2020/12/26 07:24:42;;;;;;;16.88;6.82;;;;;;;1.26;84.71;101871.91;10123636;28;20133;-66
2020/12/26 07:29:54;;;;;;;15.98;7.15;;;;;;;1.18;85.30;101868.69;10139485;28;20057;-66
2020/12/26 07:34:50;;;;;;;13.65;5.97;;;;;;;1.23;84.93;101872.38;10123407;28;20089;-65
2020/12/26 07:39:46;;;;;;;11.20;6.30;;;;;;;1.30;85.06;101872.28;10122756;28;20046;-66
2020/12/26 07:44:42;;;;;;;14.05;6.45;;;;;;;1.36;84.84;101868.66;10130582;28;20057;-65
2020/12/26 07:49:41;;;;;;;13.73;6.13;;;;;;;1.37;85.15;101867.63;10129955;28;20484;-65
2020/12/26 07:54:37;;;;;;;13.05;6.25;;;;;;;1.44;85.11;101867.53;10128176;28;20482;-66
2020/12/26 07:59:33;;;;;;;13.77;5.78;;;;;;;1.57;84.57;101877.28;10121886;28;20053;-65
2020/12/26 08:04:42;;;;;;;14.25;5.68;;;;;;;1.66;84.62;101881.31;10137832;28;20181;-65
2020/12/26 08:09:38;;;;;;;12.50;6.03;;;;;;;1.57;84.82;101885.38;10121295;28;20053;-66
2020/12/26 08:14:34;;;;;;;11.05;6.00;;;;;;;1.61;85.10;101883.88;10134683;28;20576;-66
2020/12/26 08:19:30;;;;;;;11.43;5.30;;;;;;;1.70;84.36;101879.81;10133175;28;20054;-65
2020/12/26 08:24:26;;;;;;;12.00;4.32;;;;;;;1.66;84.93;101875.91;10134666;28;20128;-66
2020/12/26 08:29:29;;;;;;;19.67;4.35;;;;;;;1.67;84.56;101872.16;10129359;28;20050;-65
2020/12/26 08:34:38;;;;;;;10.50;4.38;;;;;;;1.73;84.66;101881.22;10132932;28;20058;-66
2020/12/26 08:39:36;;;;;;;13.07;4.18;;;;;;;1.67;84.86;101872.16;10124787;28;20156;-66
2020/12/26 08:44:32;;;;;;;13.05;4.35;;;;;;;1.74;84.43;101862.13;10132438;28;20070;-66
2020/12/26 08:49:28;;;;;;;13.88;4.45;;;;;;;1.82;84.53;101869.88;10136454;28;20146;-66
2020/12/26 08:54:24;;;;;;;10.93;3.67;;;;;;;1.86;83.85;101854.88;10128020;28;20117;-65
2020/12/26 08:59:30;;;;;;;14.52;3.97;;;;;;;1.88;84.20;101863.56;10122165;28;20051;-66
2020/12/26 09:04:28;;;;;;;8.15;3.33;;;;;;;1.94;83.87;101847.50;10127580;28;20058;-66
2020/12/26 09:09:29;;;;;;;14.43;3.58;;;;;;;1.99;84.16;101848.44;10134166;28;20537;-65
2020/12/26 09:14:25;;;;;;;7.35;3.40;;;;;;;2.06;83.57;101848.31;10123043;28;20054;-66
2020/12/26 09:19:21;;;;;;;9.63;2.80;;;;;;;1.92;84.29;101842.31;10140595;28;20169;-65
2020/12/26 09:24:20;;;;;;;10.52;3.63;;;;;;;2.07;83.72;101847.28;10135493;28;20068;-66
2020/12/26 09:29:24;;;;;;;10.85;3.38;;;;;;;2.09;83.27;101847.88;10137130;28;20073;-66
2020/12/26 09:34:22;;;;;;;10.68;3.63;;;;;;;2.05;83.92;101830.50;10130268;28;20094;-66
2020/12/26 09:39:18;;;;;;;8.57;3.60;;;;;;;2.12;83.27;101825.81;10133027;28;20113;-65
2020/12/26 09:44:15;;;;;;;19.65;4.53;;;;;;;2.12;83.37;101812.31;10134932;28;20067;-66
2020/12/26 09:49:11;;;;;;;10.98;3.90;;;;;;;2.14;83.85;101812.09;10136723;28;20105;-66
2020/12/26 09:54:07;;;;;;;13.50;3.95;;;;;;;2.17;83.60;101796.25;10129881;28;20742;-66
2020/12/26 09:59:03;;;;;;;13.15;3.30;;;;;;;2.20;83.31;101795.78;10128777;28;20046;-66
2020/12/26 10:04:00;;;;;;;8.98;3.03;;;;;;;2.30;83.29;101796.00;10127514;28;20069;-66
2020/12/26 10:08:56;;;;;;;8.60;3.40;;;;;;;2.37;82.80;101795.06;10122615;28;20571;-66
2020/12/26 10:13:52;;;;;;;7.88;3.33;;;;;;;2.37;83.37;101786.94;10126373;28;20055;-66
2020/12/26 10:18:48;;;;;;;11.88;3.10;;;;;;;2.38;83.02;101758.91;10145316;28;20054;-66
2020/12/26 10:23:44;;;;;;;12.10;4.05;;;;;;;2.29;83.19;101771.94;10141509;28;20054;-66
2020/12/26 10:28:40;;;;;;;12.00;4.15;;;;;;;2.32;82.54;101749.88;10122136;28;20047;-66
2020/12/26 10:33:36;;;;;;;11.38;4.80;;;;;;;2.36;83.30;101747.53;10118811;28;20059;-66
2020/12/26 10:38:32;;;;;;;10.50;4.47;;;;;;;2.34;82.75;101736.97;10135440;28;20050;-66
2020/12/26 10:43:28;;;;;;;10.63;4.30;;;;;;;2.34;82.73;101736.97;10129096;28;20061;-66
2020/12/26 10:48:24;;;;;;;9.48;4.00;;;;;;;2.42;83.25;101738.50;10129980;28;20050;-66
2020/12/26 10:53:20;;;;;;;12.88;4.63;;;;;;;2.36;83.08;101712.44;10123441;28;20561;-66
2020/12/26 10:58:27;;;;;;;15.05;5.55;;;;;;;2.31;83.65;101703.19;10131542;28;20082;-66
2020/12/26 11:03:23;;;;;;;10.68;4.03;;;;;;;2.35;83.71;101700.03;10131818;28;20050;-66
2020/12/26 11:08:19;;;;;;;8.23;4.38;;;;;;;2.34;83.74;101688.38;10131553;28;20414;-66
2020/12/26 11:13:15;;;;;;;9.68;4.20;;;;;;;2.49;83.78;101690.59;10138194;28;20050;-66
2020/12/26 11:18:11;;;;;;;11.60;6.15;;;;;;;2.51;83.19;101683.06;10140261;28;20466;-66
2020/12/26 11:23:07;;;;;;;9.63;4.85;;;;;;;2.54;83.44;101682.59;10125976;28;20065;-65
2020/12/26 11:28:03;;;;;;;15.60;6.05;;;;;;;2.53;83.54;101670.16;10125199;28;20154;-65
2020/12/26 11:32:59;;;;;;;14.60;6.70;;;;;;;2.65;82.98;101657.44;10132813;28;20050;-66
2020/12/26 11:37:55;;;;;;;14.70;6.55;;;;;;;2.72;83.22;101641.88;10139491;28;20145;-66
2020/12/26 11:42:51;;;;;;;12.00;6.57;;;;;;;2.79;83.17;101635.53;10145540;28;20054;-66
2020/12/26 11:47:47;;;;;;;13.82;7.10;;;;;;;2.63;83.39;101631.72;10135724;28;20065;-66
2020/12/26 11:52:43;;;;;;;17.27;7.93;;;;;;;2.74;83.28;101626.28;10133521;28;20054;-66
2020/12/26 11:57:39;;;;;;;17.33;7.68;;;;;;;2.69;83.62;101620.78;10129240;28;20070;-66
2020/12/26 12:02:35;;;;;;;12.90;7.90;;;;;;;2.70;83.55;101618.91;10121348;28;20050;-66
2020/12/26 12:07:32;;;;;;;18.15;9.23;;;;;;;2.70;83.58;101594.59;10117888;28;20053;-66
2020/12/26 12:12:28;;;;;;;15.35;7.25;;;;;;;2.86;83.27;101579.47;10119691;28;20050;-66
2020/12/26 12:17:24;;;;;;;13.40;7.68;;;;;;;2.89;83.12;101568.97;10132754;28;20054;-66
2020/12/26 12:22:20;;;;;;;12.95;7.80;;;;;;;2.89;83.00;101570.88;10124996;28;20415;-66
2020/12/26 12:27:16;;;;;;;16.98;6.78;;;;;;;2.93;82.99;101567.44;10140579;28;20101;-66
2020/12/26 12:32:14;;;;;;;12.43;7.13;;;;;;;3.01;83.20;101558.09;10115233;28;20513;-66
2020/12/26 12:37:12;;;;;;;15.77;7.18;;;;;;;2.96;82.99;101547.19;10121758;28;20740;-66
2020/12/26 12:42:08;;;;;;;14.32;8.32;;;;;;;3.06;82.22;101539.25;10135591;28;20108;-66
2020/12/26 12:47:04;;;;;;;14.35;7.15;;;;;;;3.07;82.46;101530.09;10129038;28;20046;-66
2020/12/26 12:52:06;;;;;;;17.35;8.05;;;;;;;3.14;82.13;101513.72;10126843;28;20065;-66
2020/12/26 12:57:04;;;;;;;11.43;7.10;;;;;;;3.16;82.45;101506.97;10130844;28;20116;-66
2020/12/26 13:02:00;;;;;;;13.27;6.43;;;;;;;3.20;82.10;101490.25;10122824;28;20412;-66
2020/12/26 13:06:56;;;;;;;16.65;6.28;;;;;;;3.25;82.14;101493.88;10132622;28;20050;-66
2020/12/26 13:11:53;;;;;;;14.23;6.55;;;;;;;3.32;81.36;101493.69;10135448;28;20116;-66
2020/12/26 13:16:49;;;;;;;16.02;7.30;;;;;;;3.36;81.95;101484.00;10123221;28;20078;-67
2020/12/26 13:21:45;;;;;;;10.85;6.30;;;;;;;3.30;81.36;101479.59;10138420;28;20054;-66
2020/12/26 13:26:46;;;;;;;15.50;6.95;;;;;;;3.40;81.78;101468.91;10136769;28;20082;-66
2020/12/26 13:31:43;;;;;;;14.38;5.82;;;;;;;3.37;81.53;101469.41;10137843;28;20062;-66
2020/12/26 13:36:40;;;;;;;12.27;5.97;;;;;;;3.36;81.53;101462.38;10132914;28;20803;-66
2020/12/26 13:41:36;;;;;;;11.05;7.10;;;;;;;3.26;81.93;101473.88;10136829;28;20058;-66
2020/12/26 13:46:33;;;;;;;13.32;6.53;;;;;;;3.25;82.03;101457.88;10139769;28;20768;-66
2020/12/26 13:51:29;;;;;;;14.30;6.95;;;;;;;3.30;81.09;101449.88;10143354;28;20054;-66
2020/12/26 13:56:25;;;;;;;13.05;7.00;;;;;;;3.28;81.65;101454.72;10136579;28;20042;-66
2020/12/26 14:01:25;;;;;;;12.57;7.78;;;;;;;3.30;81.27;101444.47;10124223;28;20082;-66
2020/12/26 14:06:27;;;;;;;15.32;7.45;;;;;;;3.34;81.14;101448.28;10135463;28;20074;-66
2020/12/26 14:11:24;;;;;;;11.48;7.05;;;;;;;3.34;81.16;101437.47;10124113;28;20054;-66
2020/12/26 14:16:25;;;;;;;13.00;7.75;;;;;;;3.41;81.41;101423.75;10116205;28;20046;-66
2020/12/26 14:21:30;;;;;;;14.00;8.50;;;;;;;3.37;81.51;101426.16;10132991;28;20050;-66
2020/12/26 14:26:26;;;;;;;14.52;9.35;;;;;;;3.34;81.07;101426.66;10135698;28;20109;-66
2020/12/26 14:31:22;;;;;;;14.80;9.68;;;;;;;3.36;81.31;101413.69;10137045;28;20042;-67
2020/12/26 14:36:25;;;;;;;16.05;10.15;;;;;;;3.31;80.49;101410.94;10134039;28;20105;-65
2020/12/26 14:41:21;;;;;;;14.35;9.75;;;;;;;3.36;80.82;101402.88;10137948;28;20097;-65
2020/12/26 14:46:18;;;;;;;18.90;10.48;;;;;;;3.39;80.95;101418.63;10138133;28;20069;-65
2020/12/26 14:51:17;;;;;;;18.25;10.80;;;;;;;3.44;80.03;101405.16;10142169;28;20070;-65
2020/12/26 14:56:13;;;;;;;18.75;11.70;;;;;;;3.46;80.45;101397.63;10126055;28;20141;-65
2020/12/26 15:01:14;;;;;;;16.83;11.02;;;;;;;3.38;79.71;101373.72;10129956;28;20054;-67
2020/12/26 15:06:10;;;;;;;16.83;11.20;;;;;;;3.38;80.02;101357.50;10141021;28;20053;-65
2020/12/26 15:11:06;;;;;;;16.67;11.45;;;;;;;3.43;80.21;101360.25;10136101;28;20137;-65
2020/12/26 15:16:02;;;;;;;14.65;10.57;;;;;;;3.42;79.68;101347.81;10129447;28;20426;-65
2020/12/26 15:20:59;;;;;;;16.90;11.30;;;;;;;3.35;79.83;101353.44;10136788;28;20054;-65
2020/12/26 15:25:55;;;;;;;18.67;12.48;;;;;;;3.36;80.16;101343.41;10133312;28;20057;-65
2020/12/26 15:30:51;;;;;;;16.40;11.65;;;;;;;3.42;79.64;101358.63;10107348;28;20097;-65
2020/12/26 15:35:51;;;;;;;16.88;11.75;;;;;;;3.37;79.68;101328.84;10136976;28;20098;-65
2020/12/26 15:40:47;;;;;;;16.02;12.43;;;;;;;3.42;79.69;101328.91;10129402;28;20054;-65
2020/12/26 15:45:43;;;;;;;21.80;13.10;;;;;;;3.38;78.65;101320.47;10115687;28;20537;-65
2020/12/26 15:50:39;;;;;;;18.83;12.05;;;;;;;3.42;78.97;101315.38;10131237;28;20058;-65
2020/12/26 15:55:36;;;;;;;17.45;11.30;;;;;;;3.31;78.64;101302.84;10130058;28;20062;-65
2020/12/26 16:00:31;;;;;;;19.25;11.32;;;;;;;3.34;78.95;101280.69;10135297;28;21995;-65
2020/12/26 16:05:27;;;;;;;17.48;13.50;;;;;;;3.33;79.02;101268.25;10136319;28;20061;-66
2020/12/26 16:10:24;;;;;;;20.77;13.02;;;;;;;3.32;78.75;101255.81;10126793;28;20053;-65
2020/12/26 16:15:20;;;;;;;19.92;15.25;;;;;;;3.35;78.03;101241.78;10131723;28;20054;-65
2020/12/26 16:20:15;;;;;;;20.88;15.00;;;;;;;3.28;78.22;101230.38;10126901;28;20058;-65
2020/12/26 16:25:11;;;;;;;19.48;14.88;;;;;;;3.31;78.11;101216.34;10143548;28;20058;-65
2020/12/26 16:30:12;;;;;;;23.13;14.30;;;;;;;3.30;78.38;101230.94;10112137;28;20057;-65
2020/12/26 16:35:08;;;;;;;23.98;16.48;;;;;;;3.32;77.85;101216.09;10132268;28;20054;-65
2020/12/26 16:40:06;;;;;;;18.67;13.45;;;;;;;3.29;77.97;101207.66;10138766;28;20073;-65
2020/12/26 16:45:04;;;;;;;17.48;12.77;;;;;;;3.32;77.54;101201.78;10130991;28;20506;-65
2020/12/26 16:50:00;;;;;;;18.90;12.95;;;;;;;3.31;77.95;101210.94;10124924;28;20102;-65
2020/12/26 16:54:57;;;;;;;21.05;13.70;;;;;;;3.33;78.01;101181.75;10133306;28;20046;-65
2020/12/26 16:59:53;;;;;;;18.42;13.25;;;;;;;3.29;78.04;101180.63;10125001;28;20530;-65
2020/12/26 17:04:49;;;;;;;18.73;13.15;;;;;;;3.28;78.35;101152.00;10130223;28;20056;-65
2020/12/26 17:09:45;;;;;;;18.50;11.80;;;;;;;3.25;77.92;101137.13;10123517;28;20097;-65
2020/12/26 17:14:41;;;;;;;22.27;10.82;;;;;;;3.18;78.49;101133.81;10128888;28;20053;-65
2020/12/26 17:19:37;;;;;;;16.15;12.90;;;;;;;3.27;78.64;101123.31;10136014;28;20069;-65
2020/12/26 17:24:34;;;;;;;17.40;12.30;;;;;;;3.27;79.00;101112.53;10140630;28;20054;-65
2020/12/26 17:29:30;;;;;;;13.85;10.65;;;;;;;3.28;79.00;101103.34;10141585;28;20046;-65
2020/12/26 17:34:28;;;;;;;13.55;10.52;;;;;;;3.16;79.31;101096.25;10136353;28;20446;-65
2020/12/26 17:39:24;;;;;;;13.40;10.98;;;;;;;3.23;79.51;101087.09;10123525;28;20058;-65
2020/12/26 17:44:20;;;;;;;13.93;9.77;;;;;;;3.12;79.95;101078.91;10148086;28;20050;-65
2020/12/26 17:49:16;;;;;;;13.13;10.75;;;;;;;3.21;80.34;101064.94;10144400;28;20727;-65
2020/12/26 17:54:12;;;;;;;13.80;10.35;;;;;;;3.22;80.42;101061.16;10139024;28;20061;-65
2020/12/26 17:59:11;;;;;;;18.05;11.55;;;;;;;3.19;81.09;101058.97;10124454;28;20426;-65
2020/12/26 18:04:07;;;;;;;15.15;9.68;;;;;;;3.14;80.96;101044.34;10146672;28;20082;-65
2020/12/26 18:09:03;;;;;;;15.80;10.30;;;;;;;3.11;81.48;101047.56;10127166;28;20441;-65
2020/12/26 18:13:59;;;;;;;15.23;9.57;;;;;;;3.14;81.52;101038.94;10143545;28;20149;-65
2020/12/26 18:18:55;;;;;;;15.45;9.02;;;;;;;3.22;81.24;101034.13;10134738;28;20134;-65
2020/12/26 18:23:51;;;;;;;15.50;10.10;;;;;;;3.16;81.24;101025.97;10143214;28;20148;-65
2020/12/26 18:28:47;;;;;;;15.15;10.35;;;;;;;3.19;81.50;101023.84;10130665;28;20102;-65
2020/12/26 18:33:48;;;;;;;15.32;10.48;;;;;;;3.25;81.70;101002.00;10139615;28;20486;-65
2020/12/26 18:38:44;;;;;;;13.15;9.63;;;;;;;3.19;81.63;101004.94;10143287;28;20056;-65
2020/12/26 18:43:40;;;;;;;12.27;8.30;;;;;;;3.06;81.81;100990.78;10140918;28;20050;-65
2020/12/26 18:48:36;;;;;;;14.25;9.05;;;;;;;3.10;81.56;100980.28;10143366;28;20046;-65
2020/12/26 18:53:33;;;;;;;12.18;8.88;;;;;;;3.13;81.43;100977.03;10143391;28;20054;-65
2020/12/26 18:58:30;;;;;;;15.35;8.27;;;;;;;3.05;82.52;100975.66;10138665;28;20121;-65
2020/12/26 19:03:42;;;;;;;15.95;9.85;;;;;;;3.07;82.01;100978.91;10138792;28;20125;-66
2020/12/26 19:08:37;;;;;;;16.48;9.32;;;;;;;3.08;82.42;100958.09;10144684;28;20061;-66
2020/12/26 19:13:33;;;;;;;15.18;8.75;;;;;;;3.14;82.40;100952.47;10142433;28;20186;-65
2020/12/26 19:18:29;;;;;;;15.60;9.98;;;;;;;3.16;82.70;100930.59;10138123;28;20058;-66
2020/12/26 19:23:26;;;;;;;17.58;10.38;;;;;;;3.09;83.16;100920.03;10138477;28;20050;-66
2020/12/26 19:28:22;;;;;;;14.75;9.95;;;;;;;3.09;83.46;100911.94;10140045;28;20082;-66
2020/12/26 19:33:18;;;;;;;14.75;10.18;;;;;;;3.05;84.27;100901.91;10130386;28;20061;-66
2020/12/26 19:38:14;;;;;;;17.73;10.90;;;;;;;2.99;83.98;100878.63;10134088;28;20065;-65
2020/12/26 19:43:09;;;;;;;14.52;10.65;;;;;;;3.06;84.29;100866.50;10145969;28;20304;-65
2020/12/26 19:48:05;;;;;;;14.20;10.65;;;;;;;2.97;84.09;100854.63;10134583;28;20470;-65
2020/12/26 19:53:02;;;;;;;15.48;10.50;;;;;;;3.02;84.59;100830.31;10135402;28;20058;-65
2020/12/26 19:57:58;;;;;;;14.07;9.25;;;;;;;3.13;84.12;100837.38;10114799;28;20958;-65
2020/12/26 20:02:54;;;;;;;13.98;9.35;;;;;;;3.09;84.21;100836.28;10136272;28;20125;-66
2020/12/26 20:07:50;;;;;;;14.25;10.05;;;;;;;3.16;84.36;100820.63;10130312;28;20523;-65
2020/12/26 20:12:46;;;;;;;12.70;9.55;;;;;;;3.19;84.20;100807.69;10126055;28;20050;-66
2020/12/26 20:17:43;;;;;;;12.55;8.40;;;;;;;3.25;83.70;100795.78;10139592;28;20495;-65
2020/12/26 20:22:39;;;;;;;11.35;7.80;;;;;;;3.32;83.06;100780.16;10129318;28;20046;-65
2020/12/26 20:27:35;;;;;;;12.55;7.45;;;;;;;3.39;83.00;100775.28;10129954;28;20061;-65
2020/12/26 20:32:31;;;;;;;12.00;7.13;;;;;;;3.38;82.62;100763.66;10141728;28;20633;-65
2020/12/26 20:37:27;;;;;;;9.65;7.32;;;;;;;3.42;82.59;100765.84;10125267;28;20050;-65
2020/12/26 20:42:23;;;;;;;8.48;6.38;;;;;;;3.41;83.09;100746.06;10134578;28;20078;-65
2020/12/26 20:47:19;;;;;;;6.70;4.57;;;;;;;3.38;83.01;100741.22;10135691;28;20057;-66
2020/12/26 20:52:15;;;;;;;9.65;6.03;;;;;;;3.41;82.94;100727.16;10132506;28;20497;-65
2020/12/26 20:57:11;;;;;;;8.82;5.55;;;;;;;3.47;82.20;100722.59;10137392;28;20462;-65
2020/12/26 21:02:07;;;;;;;12.95;6.57;;;;;;;3.53;81.92;100711.50;10141898;28;20042;-66
2020/12/26 21:07:03;;;;;;;8.80;5.63;;;;;;;3.55;81.56;100693.13;10126822;28;20047;-65
2020/12/26 21:11:59;;;;;;;9.88;5.38;;;;;;;3.51;81.83;100702.03;10127370;28;20055;-65
2020/12/26 21:16:55;;;;;;;6.82;4.00;;;;;;;3.50;81.83;100676.88;10131462;28;20047;-65
2020/12/26 21:21:53;;;;;;;9.15;4.22;;;;;;;3.48;81.84;100667.41;10141973;28;20541;-65
2020/12/26 21:26:49;;;;;;;8.77;4.90;;;;;;;3.48;80.90;100646.63;10136941;28;20057;-64
2020/12/26 21:31:46;;;;;;;9.57;5.68;;;;;;;3.47;81.45;100642.28;10131649;28;20137;-66
2020/12/26 21:36:42;;;;;;;6.53;4.20;;;;;;;3.48;81.63;100649.34;10115406;28;20114;-65
2020/12/26 21:41:40;;;;;;;10.80;4.72;;;;;;;3.50;80.77;100639.03;10118474;28;20066;-65
2020/12/26 21:46:36;;;;;;;9.05;3.75;;;;;;;3.49;80.33;100607.69;10138287;28;20053;-65
2020/12/26 21:51:32;;;;;;;5.25;3.13;;;;;;;3.52;80.47;100615.25;10127316;28;20704;-64
2020/12/26 21:56:28;;;;;;;7.38;4.00;;;;;;;3.53;80.66;100592.56;10132450;28;20104;-65
2020/12/26 22:01:24;;;;;;;5.78;2.92;;;;;;;3.54;80.26;100561.72;10135377;28;20426;-65
2020/12/26 22:06:20;;;;;;;6.28;3.70;;;;;;;3.56;79.94;100554.16;10142239;28;20141;-65
2020/12/26 22:11:23;;;;;;;8.10;3.70;;;;;;;3.52;79.96;100539.56;10137238;28;20065;-65
2020/12/26 22:16:19;;;;;;;7.82;3.22;;;;;;;3.50;80.48;100549.81;10138473;28;20104;-64
2020/12/26 22:21:26;;;;;;;5.88;3.45;;;;;;;3.49;80.48;100532.00;10142061;28;20093;-65
2020/12/26 22:26:23;;;;;;;9.25;3.42;;;;;;;3.47;80.66;100523.34;10145984;28;20522;-65
2020/12/26 22:31:21;;;;;;;6.75;3.22;;;;;;;3.52;80.79;100504.41;10135333;28;20101;-65
2020/12/26 22:36:17;;;;;;;6.18;3.67;;;;;;;3.58;80.91;100508.72;10142594;28;20533;-65
2020/12/26 22:41:14;;;;;;;9.20;3.92;;;;;;;3.59;79.81;100504.13;10146718;28;20054;-65